Weather at Arachthos Airfield

Public forecast

Using degrees Celsius for public forecast. Weather courtesy of forecast.io.

Closest aviation weather report (METAR) to Arachthos Airfield

Closest report is Aktion National Airport, 13.7 nm (25.4 km) SW.

2024/05/23 23:50 (retrieved 1 hour ago)

LGPZ 232350Z 25008KT 9999 FEW025 19/18 Q1016 BLU

Closest aviation forecast (TAF) to Arachthos Airfield

Forecast is more than 6 hours old.

Closest forecast is Kukës International Airport, 178.7 nm (331.0 km) N.

2024/05/23 18:00 Ammendment (retrieved 7 hours ago)

TAF AMD LAKU 231900Z 2318/2418 CNL